createdAt,value
2022-11-21T00:00:00.402Z,1.1
2022-11-21T00:05:00.406Z,1.1
2022-11-21T00:10:00.412Z,1.1
2022-11-21T00:15:00.607Z,1.1
2022-11-21T00:20:00.475Z,1.1
2022-11-21T00:25:00.452Z,1.1
2022-11-21T00:30:00.468Z,1.1
2022-11-21T00:35:00.480Z,1.1
2022-11-21T00:40:00.474Z,1.1
2022-11-21T00:45:00.502Z,1.1
2022-11-21T00:50:00.395Z,1.1
2022-11-21T00:55:00.288Z,1.1
2022-11-21T01:00:00.169Z,1.1
2022-11-21T01:05:00.178Z,1.1
2022-11-21T01:10:00.154Z,1.1
2022-11-21T01:15:00.105Z,1.1
2022-11-21T01:20:00.125Z,1.1
2022-11-21T01:25:00.136Z,1.1
2022-11-21T01:30:00.131Z,1.1
2022-11-21T01:35:00.144Z,1.1
2022-11-21T01:40:00.147Z,1.1
2022-11-21T01:45:00.141Z,1.1
2022-11-21T01:50:00.144Z,1.1
2022-11-21T01:55:00.158Z,1.1
2022-11-21T02:00:00.165Z,1.1
2022-11-21T02:05:00.177Z,1.1
2022-11-21T02:10:00.173Z,1.1
2022-11-21T02:15:00.180Z,1.1
2022-11-21T02:20:00.187Z,1.1
2022-11-21T02:25:00.184Z,1.1
2022-11-21T02:30:00.194Z,1.1
2022-11-21T02:35:00.198Z,1.1
2022-11-21T02:40:00.202Z,1.1
2022-11-21T02:45:00.220Z,1.1
2022-11-21T02:50:00.217Z,1.1
2022-11-21T02:55:00.243Z,1.1
2022-11-21T03:00:00.224Z,1.1
2022-11-21T03:10:01.292Z,1.1
2022-11-21T03:15:01.281Z,1.1
2022-11-21T03:20:01.314Z,1.1
2022-11-21T03:25:01.291Z,1.1
2022-11-21T03:30:01.300Z,1.1
2022-11-21T03:35:01.300Z,1.1
2022-11-21T03:40:01.336Z,1.1
2022-11-21T03:45:01.311Z,1.1
2022-11-21T03:50:01.325Z,1.1
2022-11-21T03:55:01.333Z,1.1
2022-11-21T04:00:01.343Z,1.1
2022-11-21T04:05:01.332Z,1.1
2022-11-21T04:10:01.409Z,1.1
2022-11-21T04:15:01.353Z,1.1
2022-11-21T04:20:01.351Z,1.1
2022-11-21T04:25:01.362Z,1.1
2022-11-21T04:30:01.376Z,1.1
2022-11-21T04:35:01.373Z,1.1
2022-11-21T04:40:01.371Z,1.1
2022-11-21T04:45:01.372Z,1.1
2022-11-21T04:50:01.378Z,1.1
2022-11-21T04:55:01.391Z,1.1
2022-11-21T05:00:01.401Z,1.1
2022-11-21T05:05:01.393Z,1.1
2022-11-21T05:10:01.400Z,1.1
2022-11-21T05:15:01.407Z,1.1
2022-11-21T05:20:01.411Z,1.1
2022-11-21T05:25:01.414Z,1.1
2022-11-21T05:30:01.421Z,1.1
2022-11-21T05:35:01.428Z,1.1
2022-11-21T05:40:01.449Z,1.1
2022-11-21T05:45:01.435Z,1.1
2022-11-21T05:50:01.438Z,1.1
2022-11-21T05:55:01.459Z,1.1
2022-11-21T06:00:01.459Z,1.1
2022-11-21T06:05:01.507Z,1.1
2022-11-21T06:10:01.459Z,1.1
2022-11-21T06:15:01.468Z,2.7
2022-11-21T06:20:01.476Z,6.9
2022-11-21T06:25:01.482Z,16.2
2022-11-21T06:30:01.478Z,32.5
2022-11-21T06:35:01.488Z,59.7
2022-11-21T06:40:01.494Z,98.7
2022-11-21T06:45:01.496Z,134.7
2022-11-21T06:50:01.523Z,179.5
2022-11-21T06:55:00.149Z,250.9
2022-11-21T07:00:00.174Z,307.4
2022-11-21T07:05:00.174Z,372.2
2022-11-21T07:10:00.182Z,404.8
2022-11-21T07:15:00.175Z,472.9
2022-11-21T07:20:00.185Z,579.4
2022-11-21T07:25:00.197Z,676.9
2022-11-21T07:30:00.200Z,736
2022-11-21T07:35:00.233Z,744.8
2022-11-21T07:40:00.250Z,753.8
2022-11-21T07:45:00.218Z,819.6
2022-11-21T07:50:00.212Z,800.3
2022-11-21T07:55:00.218Z,912.8
2022-11-21T08:00:00.233Z,901.9
2022-11-21T08:05:00.234Z,1601.3
2022-11-21T08:10:00.821Z,1306.7
2022-11-21T08:15:00.806Z,1563.4
2022-11-21T08:20:00.254Z,1472.7
2022-11-21T08:25:00.256Z,1322.4
2022-11-21T08:30:00.254Z,1437.9
2022-11-21T08:35:00.258Z,1985.8
2022-11-21T08:40:00.273Z,1508.3
2022-11-21T08:45:00.270Z,1016.5
2022-11-21T08:50:04.286Z,957.5
2022-11-21T08:55:00.284Z,1187.5
2022-11-21T09:00:00.288Z,980.7
2022-11-21T09:05:00.296Z,1053.6
2022-11-21T09:10:00.315Z,1403.9
2022-11-21T09:15:00.300Z,1826.4
2022-11-21T09:20:00.429Z,2238.1
2022-11-21T09:25:00.327Z,992.5
2022-11-21T09:30:00.311Z,3442.3
2022-11-21T09:35:00.825Z,3361
2022-11-21T09:40:00.322Z,4754.3
2022-11-21T09:45:00.334Z,3018
2022-11-21T09:50:00.365Z,2946.7
2022-11-21T09:55:00.345Z,3926.3
2022-11-21T10:00:00.352Z,3611.1
2022-11-21T10:05:00.359Z,5231.6
2022-11-21T10:10:00.353Z,5553.9
2022-11-21T10:15:00.359Z,3926.3
2022-11-21T10:20:00.366Z,2009.8
2022-11-21T10:25:00.382Z,1893.1
2022-11-21T10:30:00.386Z,1679.7
2022-11-21T10:35:00.378Z,2058.4
2022-11-21T10:40:00.406Z,2211.5
2022-11-21T10:45:00.393Z,1915.9
2022-11-21T10:50:00.399Z,2211.5
2022-11-21T10:55:00.404Z,2710.1
2022-11-21T11:00:00.439Z,2376
2022-11-21T11:05:00.409Z,2058.4
2022-11-21T11:10:00.429Z,2133.6
2022-11-21T11:15:00.482Z,2462.8
2022-11-21T11:20:00.462Z,1870.6
2022-11-21T11:25:01.210Z,1962.2
2022-11-21T11:30:00.431Z,2433.5
2022-11-21T11:35:00.493Z,2946.7
2022-11-21T11:40:00.448Z,2211.5
2022-11-21T11:45:00.453Z,2462.8
2022-11-21T11:50:00.967Z,2982.2
2022-11-21T11:55:00.471Z,3091.1
2022-11-21T12:00:00.483Z,2742.6
2022-11-21T12:05:00.484Z,2646
2022-11-21T12:10:00.471Z,2677.9
2022-11-21T12:15:00.485Z,2646
2022-11-21T12:20:00.482Z,2742.6
2022-11-21T12:25:00.490Z,1804.7
2022-11-21T12:30:00.503Z,1720.4
2022-11-21T12:35:00.504Z,1544.8
2022-11-21T12:40:00.517Z,1762
2022-11-21T12:45:00.509Z,1679.7
2022-11-21T12:50:00.484Z,2238.1
2022-11-21T12:55:00.343Z,2238.1
2022-11-21T13:00:00.192Z,2614.6
2022-11-21T13:05:00.112Z,2809
2022-11-21T13:10:00.101Z,2614.6
2022-11-21T13:15:00.107Z,2492.4
2022-11-21T13:20:00.133Z,2462.8
2022-11-21T13:25:00.143Z,2159.2
2022-11-21T13:30:00.166Z,2211.5
2022-11-21T13:35:00.123Z,2462.8
2022-11-21T13:40:00.728Z,2946.7
2022-11-21T13:45:00.149Z,2292.3
2022-11-21T13:50:00.146Z,2133.6
2022-11-21T13:55:00.737Z,1985.8
2022-11-21T14:00:00.177Z,1762
2022-11-21T14:05:00.161Z,1472.7
2022-11-21T14:10:00.170Z,1387.2
2022-11-21T14:15:00.186Z,1354.4
2022-11-21T14:20:00.188Z,1118.6
2022-11-21T14:25:00.183Z,1041.1
2022-11-21T14:30:00.191Z,992.5
2022-11-21T14:35:00.187Z,849.6
2022-11-21T14:40:00.207Z,701.6
2022-11-21T14:45:00.206Z,593.4
2022-11-21T14:50:05.468Z,579.4
2022-11-21T14:55:29.822Z,502
2022-11-21T15:00:00.228Z,434.9
2022-11-21T15:05:00.219Z,399.9
2022-11-21T15:10:30.106Z,399.9
2022-11-21T15:15:00.799Z,399.9
2022-11-21T15:20:00.800Z,311.1
2022-11-21T15:25:00.242Z,212.2
2022-11-21T15:30:00.267Z,151.8
2022-11-21T15:35:00.279Z,112.6
2022-11-21T15:40:00.279Z,79.6
2022-11-21T15:45:00.325Z,53
2022-11-21T15:50:00.283Z,32.1
2022-11-21T15:55:00.304Z,17
2022-11-21T16:00:00.451Z,7.9
2022-11-21T16:05:00.291Z,3.3
2022-11-21T16:10:00.346Z,1.3
2022-11-21T16:15:00.310Z,1.1
2022-11-21T16:20:00.333Z,1.1
2022-11-21T16:25:00.338Z,1.1
2022-11-21T16:30:00.327Z,1.1
2022-11-21T16:35:00.470Z,1.1
2022-11-21T16:40:00.435Z,1.1
2022-11-21T16:45:00.403Z,1.1
2022-11-21T16:50:00.399Z,1.1
2022-11-21T16:55:00.364Z,1.1
2022-11-21T17:00:00.705Z,1.1
2022-11-21T17:05:00.371Z,1.1
2022-11-21T17:10:00.372Z,1.1
2022-11-21T17:15:00.392Z,1.1
2022-11-21T17:20:00.391Z,1.1
2022-11-21T17:25:00.394Z,1.1
2022-11-21T17:30:00.364Z,1.1
2022-11-21T17:35:00.382Z,1.1
2022-11-21T17:40:00.392Z,1.1
2022-11-21T17:45:00.385Z,1.1
2022-11-21T17:50:05.662Z,1.1
2022-11-21T17:55:00.403Z,1.1
2022-11-21T18:00:00.397Z,1.1
2022-11-21T18:05:00.402Z,1.1
2022-11-21T18:10:20.345Z,1.1
2022-11-21T18:15:00.411Z,1.1
2022-11-21T18:20:00.418Z,1.1
2022-11-21T18:25:00.424Z,1.1
2022-11-21T18:30:00.436Z,1.1
2022-11-21T18:35:00.440Z,1.1
2022-11-21T18:40:00.438Z,1.1
2022-11-21T18:45:00.661Z,1.1
2022-11-21T18:50:00.427Z,1.1
2022-11-21T18:55:00.288Z,1.1
2022-11-21T19:00:00.193Z,1.1
2022-11-21T19:05:00.116Z,1.1
2022-11-21T19:10:27.310Z,1.1
2022-11-21T19:15:00.129Z,1.1
2022-11-21T19:20:00.923Z,1.1
2022-11-21T19:25:00.146Z,1.1
2022-11-21T19:30:00.160Z,1.1
2022-11-21T19:35:00.155Z,1.1
2022-11-21T19:40:00.149Z,1.1
2022-11-21T19:45:00.160Z,1.1
2022-11-21T19:50:00.177Z,1.1
2022-11-21T19:55:00.186Z,1.1
2022-11-21T20:00:00.182Z,1.1
2022-11-21T20:05:00.182Z,1.1
2022-11-21T20:10:00.191Z,1.1
2022-11-21T20:15:00.197Z,1.1
2022-11-21T20:20:00.203Z,1.1
2022-11-21T20:25:00.199Z,1.1
2022-11-21T20:30:00.257Z,1.1
2022-11-21T20:35:00.216Z,1.1
2022-11-21T20:40:00.225Z,1.1
2022-11-21T20:50:00.284Z,1.1
2022-11-21T20:55:00.245Z,1.1
2022-11-21T21:00:00.225Z,1.1
2022-11-21T21:05:00.231Z,1.1
2022-11-21T21:10:00.240Z,1.1
2022-11-21T21:15:00.241Z,1.1
2022-11-21T21:20:00.260Z,1.1
2022-11-21T21:25:00.261Z,1.1
2022-11-21T21:30:00.256Z,1.1
2022-11-21T21:35:00.258Z,1.1
2022-11-21T21:40:00.269Z,1.1
2022-11-21T21:45:00.271Z,1.1
2022-11-21T21:50:00.278Z,1.1
2022-11-21T21:55:00.283Z,1.1
2022-11-21T22:00:00.291Z,1.1
2022-11-21T22:05:00.288Z,1.1
2022-11-21T22:10:00.290Z,1.1
2022-11-21T22:15:00.293Z,1.1
2022-11-21T22:20:00.301Z,1.1
2022-11-21T22:25:00.303Z,1.1
2022-11-21T22:30:00.442Z,1.1
2022-11-21T22:35:00.493Z,1.1
2022-11-21T22:40:00.373Z,1.1
2022-11-21T22:45:00.373Z,1.1
2022-11-21T22:50:00.365Z,1.1
2022-11-21T22:55:00.372Z,1.1
2022-11-21T23:00:00.338Z,1.1
2022-11-21T23:05:00.344Z,1.1
2022-11-21T23:10:00.346Z,1.1
2022-11-21T23:15:00.351Z,1.1
2022-11-21T23:20:00.388Z,1.1
2022-11-21T23:25:00.367Z,1.1
2022-11-21T23:30:00.369Z,1.1
2022-11-21T23:35:00.377Z,1.1
2022-11-21T23:40:00.384Z,1.1
2022-11-21T23:45:00.381Z,1.1
2022-11-21T23:50:00.390Z,1.1
2022-11-21T23:55:00.393Z,1.1
